Time;durP1;ratioP1;P1;durP2;ratioP2;P2;SDS_P1;SDS_P2;PMS_P1;PMS_P2;Temp;Humidity;BMP_temperature;BMP_pressure;BME280_temperature;BME280_humidity;BME280_pressure;Samples;Min_cycle;Max_cycle;Signal;HPM_P1;HPM_P2
2022/05/16 00:02:13;;;;;;;4.88;1.35;;;;;;;48.63;2.52;100423.41;4961711;28;20172;-61
2022/05/16 00:04:43;;;;;;;5.72;1.48;;;;;;;46.35;2.77;100429.41;4962656;28;20046;-60
2022/05/16 00:07:11;;;;;;;6.80;1.40;;;;;;;47.62;3.00;100434.78;4966106;28;20031;-64
2022/05/16 00:09:38;;;;;;;8.50;2.03;;;;;;;47.84;3.36;100431.00;4963976;28;20430;-61
2022/05/16 00:12:07;;;;;;;7.80;1.30;;;;;;;47.81;3.35;100432.06;4961829;28;20051;-63
2022/05/16 00:14:34;;;;;;;5.50;1.50;;;;;;;47.61;3.38;100435.31;4962008;28;20031;-61
2022/05/16 00:17:00;;;;;;;4.30;1.73;;;;;;;47.35;4.11;100422.03;4963825;28;20027;-59
2022/05/16 00:19:28;;;;;;;5.15;1.70;;;;;;;47.40;4.11;100424.13;4966403;28;20562;-60
2022/05/16 00:21:54;;;;;;;14.75;1.90;;;;;;;47.03;3.25;100433.06;4962113;28;20027;-61
2022/05/16 00:24:26;;;;;;;15.07;2.45;;;;;;;46.80;3.82;100429.47;4963349;28;20126;-63
2022/05/16 00:26:53;;;;;;;17.80;4.05;;;;;;;47.35;4.46;100429.88;4962508;28;20046;-64
2022/05/16 00:29:20;;;;;;;19.55;2.72;;;;;;;46.79;3.86;100422.13;4969351;28;20030;-60
2022/05/16 00:31:47;;;;;;;15.55;3.13;;;;;;;45.33;4.46;100434.53;4962109;28;20509;-58
2022/05/16 00:34:15;;;;;;;12.80;1.95;;;;;;;45.99;3.98;100433.25;4961542;28;20039;-62
2022/05/16 00:36:47;;;;;;;15.85;2.35;;;;;;;45.11;3.87;100440.91;4961584;28;20036;-61
2022/05/16 00:39:20;;;;;;;10.73;2.50;;;;;;;44.66;4.54;100439.75;4967935;28;20393;-61
2022/05/16 00:41:48;;;;;;;9.82;2.08;;;;;;;44.61;4.59;100449.91;4970760;28;20086;-60
2022/05/16 00:44:16;;;;;;;12.95;2.60;;;;;;;44.58;5.14;100451.72;4961503;28;20023;-61
2022/05/16 00:46:43;;;;;;;17.05;4.05;;;;;;;44.82;5.58;100459.19;4961362;28;20106;-60
2022/05/16 00:49:19;;;;;;;12.95;2.58;;;;;;;44.98;5.07;100455.69;4963878;28;20035;-63
2022/05/16 00:51:55;;;;;;;26.80;3.40;;;;;;;44.72;5.43;100472.16;4962164;28;20030;-64
2022/05/16 00:54:30;;;;;;;33.35;4.95;;;;;;;43.81;5.37;100466.75;4961395;28;20047;-59
2022/05/16 00:57:07;;;;;;;56.00;6.10;;;;;;;42.44;5.75;100468.44;4961696;28;20127;-60
2022/05/16 00:59:55;;;;;;;46.33;7.32;;;;;;;42.19;6.12;100464.88;4958597;28;20066;-61
2022/05/16 01:05:10;;;;;;;32.55;5.07;;;;;;;41.10;6.40;100466.34;4960081;28;20068;-60
2022/05/16 01:07:41;;;;;;;41.47;5.93;;;;;;;40.09;6.92;100458.00;4963855;28;20026;-59
2022/05/16 01:10:11;;;;;;;24.98;4.60;;;;;;;40.53;6.71;100469.03;4960986;28;20031;-60
2022/05/16 01:12:41;;;;;;;33.85;5.00;;;;;;;40.13;7.20;100470.03;4960004;28;20040;-62
2022/05/16 01:15:11;;;;;;;19.52;4.28;;;;;;;40.06;6.57;100467.50;4962025;28;20040;-61
2022/05/16 01:17:37;;;;;;;28.40;4.78;;;;;;;39.95;6.62;100464.31;4962982;28;20034;-62
2022/05/16 01:20:08;;;;;;;25.92;4.65;;;;;;;40.01;7.36;100473.81;4960816;28;20093;-62
2022/05/16 01:22:58;;;;;;;21.55;4.05;;;;;;;39.37;6.79;100476.53;4960695;28;20043;-61
2022/05/16 01:25:28;;;;;;;17.58;4.07;;;;;;;39.35;7.14;100483.94;4963424;28;20481;-60
2022/05/16 01:28:05;;;;;;;28.77;4.30;;;;;;;39.47;6.90;100498.03;4948760;28;20110;-62
2022/05/16 01:30:48;;;;;;;25.88;4.97;;;;;;;39.21;6.83;100482.47;4966244;28;20518;-61
2022/05/16 01:33:18;;;;;;;28.70;5.68;;;;;;;39.17;6.83;100478.97;4961934;28;20049;-62
2022/05/16 01:35:45;;;;;;;47.65;6.15;;;;;;;38.96;7.03;100489.94;4962547;28;20140;-60
2022/05/16 01:38:18;;;;;;;27.15;5.43;;;;;;;38.98;7.21;100492.31;4964208;28;20027;-61
2022/05/16 01:40:47;;;;;;;31.08;5.70;;;;;;;38.94;6.99;100497.31;4969837;28;20043;-60
2022/05/16 01:43:15;;;;;;;23.98;4.78;;;;;;;38.87;6.48;100492.72;4962861;28;20058;-61
2022/05/16 01:45:44;;;;;;;26.88;4.53;;;;;;;38.38;6.62;100493.31;4961543;28;20038;-61
2022/05/16 01:48:12;;;;;;;38.47;6.50;;;;;;;38.26;6.35;100484.88;4960645;28;20410;-61
2022/05/16 01:50:40;;;;;;;37.95;6.07;;;;;;;37.99;6.28;100488.25;4943450;29;20454;-61
2022/05/16 01:53:08;;;;;;;31.58;6.07;;;;;;;37.68;6.29;100488.84;4962770;28;20452;-61
2022/05/16 01:55:35;;;;;;;45.20;7.38;;;;;;;37.59;6.08;100493.66;4962460;28;20186;-60
2022/05/16 01:58:02;;;;;;;38.83;6.85;;;;;;;37.36;5.50;100498.47;4960138;28;20023;-60
2022/05/16 02:00:31;;;;;;;27.08;5.35;;;;;;;36.98;5.51;100489.91;4959459;28;20031;-61
2022/05/16 02:03:00;;;;;;;29.70;5.28;;;;;;;36.80;6.11;100496.09;4961003;28;20605;-60
2022/05/16 02:05:28;;;;;;;34.42;5.28;;;;;;;36.65;5.88;100500.59;4963164;28;20031;-59
2022/05/16 02:07:55;;;;;;;31.40;5.85;;;;;;;36.62;6.30;100512.81;4957312;28;20042;-60
2022/05/16 02:10:24;;;;;;;31.40;5.32;;;;;;;36.38;6.20;100512.28;4957417;28;20055;-61
2022/05/16 02:12:52;;;;;;;42.63;6.30;;;;;;;36.10;6.66;100527.22;4957771;28;20443;-62
2022/05/16 02:15:22;;;;;;;34.95;7.50;;;;;;;36.00;5.81;100520.59;4961487;28;20038;-62
2022/05/16 02:17:50;;;;;;;39.53;7.85;;;;;;;35.61;6.93;100524.38;4959828;28;20043;-63
2022/05/16 02:20:17;;;;;;;33.03;7.93;;;;;;;35.25;7.10;100525.19;4959521;28;20398;-60
2022/05/16 02:25:31;;;;;;;32.28;6.50;;;;;;;34.95;6.58;100529.09;4944440;28;20248;-61
2022/05/16 02:27:59;;;;;;;26.20;5.25;;;;;;;34.95;6.81;100533.94;4941950;28;20046;-60
2022/05/16 02:30:26;;;;;;;25.50;5.00;;;;;;;34.95;6.59;100533.94;4955753;28;20481;-60
2022/05/16 02:32:53;;;;;;;24.88;5.03;;;;;;;34.84;6.48;100539.81;4956331;28;20409;-61
2022/05/16 02:35:20;;;;;;;18.30;4.15;;;;;;;34.67;6.61;100535.34;4957234;28;20113;-62
2022/05/16 02:37:47;;;;;;;21.38;4.65;;;;;;;34.38;7.33;100546.38;4945046;28;20027;-62
2022/05/16 02:40:14;;;;;;;24.08;4.57;;;;;;;34.28;6.97;100542.50;4930781;28;20035;-62
2022/05/16 02:42:41;;;;;;;23.02;5.38;;;;;;;34.35;6.46;100559.34;4955311;28;20031;-63
2022/05/16 02:45:08;;;;;;;26.83;5.15;;;;;;;34.19;6.84;100556.38;4955242;28;20130;-61
2022/05/16 02:47:35;;;;;;;20.40;4.78;;;;;;;34.24;6.95;100564.34;4955105;28;20043;-60
2022/05/16 02:50:04;;;;;;;22.65;4.38;;;;;;;34.22;6.59;100566.78;4935901;28;20070;-63
2022/05/16 02:52:30;;;;;;;21.85;3.90;;;;;;;34.03;6.99;100571.16;4956455;28;20102;-62
2022/05/16 02:55:00;;;;;;;24.80;4.30;;;;;;;34.02;6.79;100566.75;4933952;28;20031;-61
2022/05/16 02:57:28;;;;;;;19.60;3.50;;;;;;;33.86;7.42;100573.06;4954047;28;20474;-60
2022/05/16 02:59:58;;;;;;;21.13;3.55;;;;;;;33.69;7.74;100579.75;4955381;28;20090;-64
2022/05/16 03:02:26;;;;;;;17.20;3.05;;;;;;;33.53;7.21;100588.03;4956375;28;20058;-59
2022/05/16 03:04:53;;;;;;;15.02;3.20;;;;;;;33.49;7.52;100581.66;4943682;28;20082;-61
2022/05/16 03:07:20;;;;;;;21.40;3.80;;;;;;;33.42;7.87;100581.78;4954094;28;20019;-61
2022/05/16 03:09:47;;;;;;;32.53;5.20;;;;;;;33.36;8.32;100584.25;4954612;28;20482;-62
2022/05/16 03:12:14;;;;;;;33.53;5.25;;;;;;;33.29;8.19;100585.13;4958589;28;20035;-63
2022/05/16 03:14:41;;;;;;;29.35;4.90;;;;;;;33.15;8.70;100590.97;4956529;28;20106;-62
2022/05/16 03:17:08;;;;;;;31.13;5.45;;;;;;;33.24;8.83;100591.25;4939882;29;20119;-63
2022/05/16 03:19:35;;;;;;;39.80;5.75;;;;;;;33.21;9.07;100594.88;4955875;28;20101;-63
2022/05/16 03:22:04;;;;;;;29.25;3.95;;;;;;;32.82;8.92;100597.41;4956278;28;20053;-63
2022/05/16 03:24:31;;;;;;;43.05;5.43;;;;;;;32.81;8.87;100605.06;4954625;28;20031;-61
2022/05/16 03:26:58;;;;;;;30.83;5.03;;;;;;;32.85;9.00;100607.81;4936091;29;20035;-63
2022/05/16 03:29:25;;;;;;;38.85;5.68;;;;;;;32.76;8.75;100591.41;4948424;28;20038;-65
2022/05/16 03:31:54;;;;;;;28.00;4.60;;;;;;;32.72;9.41;100602.72;4954123;28;20071;-64
2022/05/16 03:34:20;;;;;;;31.05;4.82;;;;;;;32.57;9.67;100600.47;4955266;28;20031;-63
2022/05/16 03:36:47;;;;;;;27.73;5.05;;;;;;;32.66;8.70;100610.00;4961422;28;20038;-64
2022/05/16 03:41:59;;;;;;;13.93;3.45;;;;;;;32.23;8.68;100609.63;4959893;28;20046;-62
2022/05/16 03:44:26;;;;;;;13.02;3.40;;;;;;;32.18;8.82;100635.38;4959544;28;20110;-61
2022/05/16 03:46:53;;;;;;;16.30;2.90;;;;;;;32.05;8.48;100625.84;4944188;29;20032;-63
2022/05/16 03:49:19;;;;;;;24.45;3.60;;;;;;;31.87;8.51;100625.97;4960693;28;20023;-62
2022/05/16 03:51:46;;;;;;;17.63;2.95;;;;;;;31.98;8.23;100623.91;4960740;28;20038;-63
2022/05/16 03:54:15;;;;;;;11.10;2.65;;;;;;;31.82;8.42;100629.25;4960630;28;20552;-63
2022/05/16 03:56:42;;;;;;;15.13;2.42;;;;;;;31.82;8.42;100640.47;4956438;28;20035;-63
2022/05/16 03:59:11;;;;;;;12.60;2.90;;;;;;;31.53;8.16;100629.38;4935941;29;20047;-62
2022/05/16 04:01:39;;;;;;;12.23;3.60;;;;;;;31.45;7.90;100616.59;4952048;28;20028;-63
2022/05/16 04:04:06;;;;;;;12.93;3.70;;;;;;;31.32;8.26;100643.53;4953835;28;20065;-62
2022/05/16 04:06:34;;;;;;;20.42;3.47;;;;;;;31.31;8.04;100630.72;4955462;28;20409;-63
2022/05/16 04:09:01;;;;;;;15.70;2.97;;;;;;;31.16;8.59;100643.97;4950828;28;20024;-62
2022/05/16 04:11:28;;;;;;;13.50;3.00;;;;;;;30.85;8.82;100648.47;4939317;29;20031;-65
2022/05/16 04:13:55;;;;;;;20.77;2.78;;;;;;;30.66;9.27;100654.53;4945639;28;20120;-62
2022/05/16 04:16:21;;;;;;;10.23;2.63;;;;;;;30.49;9.43;100650.53;4944208;28;20041;-62
2022/05/16 04:18:48;;;;;;;10.60;2.80;;;;;;;30.49;9.32;100649.72;4968339;28;20081;-62
2022/05/16 04:21:15;;;;;;;11.40;2.67;;;;;;;30.55;8.88;100657.34;4974840;28;20559;-62
2022/05/16 04:23:44;;;;;;;9.27;3.15;;;;;;;30.57;8.59;100662.56;4946747;28;20403;-59
2022/05/16 04:26:10;;;;;;;13.35;2.35;;;;;;;30.54;8.27;100657.75;4953048;28;20059;-62
2022/05/16 04:28:37;;;;;;;12.38;2.80;;;;;;;30.57;8.40;100665.34;4949279;28;20089;-61
2022/05/16 04:31:04;;;;;;;9.25;2.58;;;;;;;30.60;8.45;100665.34;4961298;28;20047;-62
2022/05/16 04:33:35;;;;;;;9.32;2.30;;;;;;;30.72;8.53;100675.38;4934943;29;20032;-61
2022/05/16 04:36:02;;;;;;;13.07;2.78;;;;;;;30.69;8.39;100670.56;4953290;28;20482;-60
2022/05/16 04:38:29;;;;;;;8.82;2.70;;;;;;;30.63;8.31;100666.56;4952218;28;20113;-62
2022/05/16 04:43:41;;;;;;;12.52;2.80;;;;;;;30.74;8.44;100680.59;4947702;28;20027;-62
2022/05/16 04:46:08;;;;;;;7.97;2.17;;;;;;;30.63;8.50;100684.19;4953004;28;20035;-61
2022/05/16 04:48:35;;;;;;;14.65;3.08;;;;;;;30.46;8.72;100692.59;4951845;28;20394;-60
2022/05/16 04:51:03;;;;;;;12.75;2.80;;;;;;;30.51;8.60;100693.00;4952504;28;20027;-62
2022/05/16 04:53:30;;;;;;;10.55;2.45;;;;;;;30.35;8.75;100690.63;4948940;28;20027;-63
2022/05/16 04:55:57;;;;;;;11.18;2.30;;;;;;;30.13;8.92;100691.78;4948193;28;20024;-62
2022/05/16 04:58:24;;;;;;;11.18;3.13;;;;;;;30.16;8.89;100688.16;4952744;28;20075;-59
2022/05/16 05:00:52;;;;;;;18.00;3.42;;;;;;;30.08;8.89;100676.16;4949399;28;20019;-61
2022/05/16 05:03:19;;;;;;;9.25;2.58;;;;;;;30.19;9.07;100681.78;4933916;28;20035;-60
2022/05/16 05:05:45;;;;;;;9.65;2.78;;;;;;;29.97;9.01;100680.13;4936353;28;20445;-60
2022/05/16 05:08:12;;;;;;;10.90;2.70;;;;;;;29.84;9.23;100682.50;4938970;28;20057;-61
2022/05/16 05:16:16;;;;;;;12.68;2.60;;;;;;;30.17;8.99;100689.81;4954597;28;20441;-60
2022/05/16 05:18:43;;;;;;;12.27;3.22;;;;;;;30.15;9.14;100694.19;4965279;28;20474;-59
2022/05/16 05:21:10;;;;;;;8.95;3.15;;;;;;;30.01;9.22;100689.34;4965331;28;20061;-61
2022/05/16 05:23:40;;;;;;;9.25;2.75;;;;;;;30.04;9.26;100694.19;4969520;28;20129;-60
2022/05/16 05:26:08;;;;;;;10.45;2.38;;;;;;;30.00;9.37;100708.16;4959643;28;20054;-61
2022/05/16 05:28:35;;;;;;;6.43;1.92;;;;;;;30.02;9.20;100699.34;4954066;28;20027;-61
2022/05/16 05:31:02;;;;;;;8.18;2.10;;;;;;;29.91;9.11;100709.72;4950559;28;20102;-61
2022/05/16 05:33:30;;;;;;;8.32;1.92;;;;;;;29.71;9.23;100696.06;4953306;28;20052;-61
2022/05/16 05:35:57;;;;;;;16.08;2.47;;;;;;;30.00;8.76;100712.97;4936405;28;20482;-60
2022/05/16 05:38:24;;;;;;;7.07;2.20;;;;;;;29.97;9.16;100710.94;4958708;28;20027;-60
2022/05/16 05:40:50;;;;;;;8.70;3.40;;;;;;;29.93;8.84;100712.94;4954810;28;20111;-60
2022/05/16 05:43:18;;;;;;;11.68;2.33;;;;;;;30.10;8.58;100715.00;4957458;28;20042;-61
2022/05/16 05:45:45;;;;;;;6.97;2.10;;;;;;;30.05;8.74;100707.00;4957631;28;20043;-59
2022/05/16 05:48:12;;;;;;;4.88;1.95;;;;;;;30.04;8.94;100709.00;4958942;28;20509;-60
2022/05/16 05:50:39;;;;;;;6.82;1.90;;;;;;;30.08;9.01;100700.59;4956761;28;20481;-60
2022/05/16 05:53:05;;;;;;;7.78;2.17;;;;;;;29.99;8.97;100688.94;4954704;28;20049;-60
2022/05/16 05:55:32;;;;;;;8.48;2.17;;;;;;;29.99;9.03;100694.56;4958197;28;20035;-60
2022/05/16 05:57:59;;;;;;;11.13;2.60;;;;;;;29.86;8.87;100690.53;4958040;28;20030;-59
2022/05/16 06:00:26;;;;;;;8.80;2.05;;;;;;;29.76;9.10;100697.69;4965502;28;20126;-60
2022/05/16 06:02:52;;;;;;;6.40;2.05;;;;;;;29.96;8.96;100689.72;4956459;28;20054;-61
2022/05/16 06:05:21;;;;;;;10.00;2.15;;;;;;;29.79;8.86;100689.28;4957406;28;20035;-62
2022/05/16 06:07:48;;;;;;;8.32;2.40;;;;;;;29.94;8.80;100687.31;4956674;28;20031;-61
2022/05/16 06:10:15;;;;;;;8.82;2.47;;;;;;;29.85;8.40;100686.13;4958482;28;20067;-61
2022/05/16 06:12:42;;;;;;;9.68;2.17;;;;;;;29.93;8.59;100684.91;4956860;28;20024;-61
2022/05/16 06:15:11;;;;;;;7.57;1.77;;;;;;;30.32;8.05;100694.19;4957111;28;20043;-61
2022/05/16 06:17:38;;;;;;;10.80;2.38;;;;;;;30.19;8.17;100672.59;4956854;28;20553;-61
2022/05/16 06:20:08;;;;;;;10.75;2.58;;;;;;;30.19;8.08;100672.59;4958449;28;20035;-60
2022/05/16 06:22:35;;;;;;;13.85;2.75;;;;;;;30.17;8.23;100672.97;4943002;28;20098;-60
2022/05/16 06:27:53;;;;;;;7.53;2.72;;;;;;;30.22;7.77;100658.56;4956385;28;20031;-61
2022/05/16 06:30:21;;;;;;;7.78;2.38;;;;;;;30.17;8.02;100655.38;4967681;28;20019;-62
2022/05/16 06:32:49;;;;;;;9.07;2.30;;;;;;;30.18;8.13;100665.38;4972795;28;20472;-61
2022/05/16 06:35:16;;;;;;;7.63;2.97;;;;;;;30.32;7.99;100654.13;4969467;28;20037;-60
2022/05/16 06:37:44;;;;;;;8.32;2.85;;;;;;;30.51;7.48;100664.13;4965129;28;20039;-61
2022/05/16 06:40:12;;;;;;;15.23;2.30;;;;;;;30.60;7.52;100661.75;4970721;28;20509;-61
2022/05/16 06:42:39;;;;;;;6.97;2.67;;;;;;;30.40;7.38;100658.56;4959886;28;20046;-60
2022/05/16 06:45:08;;;;;;;6.50;2.70;;;;;;;30.43;7.73;100662.56;4965034;28;20118;-62
2022/05/16 06:47:34;;;;;;;12.75;2.70;;;;;;;30.30;7.98;100657.34;4968151;28;20041;-61
2022/05/16 06:50:01;;;;;;;10.90;2.53;;;;;;;29.95;8.28;100671.31;4957756;28;20442;-61
2022/05/16 06:52:28;;;;;;;11.68;2.60;;;;;;;29.83;8.47;100671.69;4959464;28;20027;-61
2022/05/16 06:54:55;;;;;;;9.52;2.50;;;;;;;29.67;8.21;100658.06;4966239;28;20051;-60
2022/05/16 06:57:22;;;;;;;9.13;2.80;;;;;;;29.62;8.47;100659.22;4966292;28;20054;-61
2022/05/16 06:59:48;;;;;;;10.40;2.90;;;;;;;29.52;8.13;100670.41;4948561;28;20030;-61
2022/05/16 07:02:15;;;;;;;12.65;2.70;;;;;;;29.56;8.48;100674.81;4957597;28;20490;-59
2022/05/16 07:04:42;;;;;;;10.57;2.80;;;;;;;29.35;8.83;100677.50;4967792;28;20031;-61
2022/05/16 07:07:09;;;;;;;14.52;3.00;;;;;;;29.22;8.77;100673.44;4964585;28;20042;-61
2022/05/16 07:09:40;;;;;;;9.25;2.65;;;;;;;29.09;8.90;100679.41;4959923;28;20446;-60
2022/05/16 07:12:10;;;;;;;9.95;2.10;;;;;;;29.05;9.12;100681.38;4960631;28;20034;-61
2022/05/16 07:14:38;;;;;;;6.97;2.00;;;;;;;28.85;8.99;100678.03;4961852;28;20501;-61
2022/05/16 07:17:06;;;;;;;8.45;2.05;;;;;;;28.92;9.12;100677.31;4964574;28;20106;-61
2022/05/16 07:19:35;;;;;;;8.27;2.45;;;;;;;28.81;9.40;100676.41;4967401;28;20030;-61
2022/05/16 07:22:07;;;;;;;6.40;2.08;;;;;;;28.97;9.17;100676.13;4940475;28;20126;-59
2022/05/16 07:24:34;;;;;;;6.90;2.22;;;;;;;28.93;8.68;100678.91;4951019;29;20070;-61
2022/05/16 07:29:46;;;;;;;12.55;2.00;;;;;;;28.71;8.82;100686.31;4958565;28;20375;-61
2022/05/16 07:32:13;;;;;;;8.32;2.13;;;;;;;28.75;8.92;100689.16;4970401;28;20054;-60
2022/05/16 07:34:39;;;;;;;6.25;2.05;;;;;;;28.68;9.46;100694.69;4959975;28;20031;-60
2022/05/16 07:37:08;;;;;;;5.82;2.28;;;;;;;28.55;9.60;100685.81;4964239;28;20518;-61
2022/05/16 07:39:35;;;;;;;7.00;2.05;;;;;;;28.03;10.01;100686.94;4967447;28;20046;-61
2022/05/16 07:42:03;;;;;;;13.07;2.25;;;;;;;27.52;10.06;100681.97;4957229;28;20035;-62
2022/05/16 07:44:32;;;;;;;5.05;1.58;;;;;;;27.16;10.24;100673.13;4968881;28;20090;-61
2022/05/16 07:46:59;;;;;;;6.93;1.75;;;;;;;26.97;10.48;100673.25;4962040;28;20030;-61
2022/05/16 07:49:26;;;;;;;4.68;1.65;;;;;;;26.99;10.31;100670.88;4960754;28;20554;-61
2022/05/16 07:51:53;;;;;;;8.20;1.83;;;;;;;27.15;10.38;100665.94;4952002;28;20500;-61
2022/05/16 07:54:20;;;;;;;7.55;1.90;;;;;;;27.25;10.34;100670.03;4957430;28;20039;-60
2022/05/16 07:56:46;;;;;;;7.60;2.40;;;;;;;27.28;10.28;100660.91;4966446;28;20470;-60
2022/05/16 07:59:13;;;;;;;10.20;2.35;;;;;;;27.22;10.29;100660.44;4962841;28;20193;-61
2022/05/16 08:01:40;;;;;;;20.83;2.55;;;;;;;26.84;10.72;100655.94;4967795;28;20042;-62
2022/05/16 08:04:07;;;;;;;6.10;1.75;;;;;;;26.44;11.11;100653.72;4957343;28;20042;-61
2022/05/16 08:06:35;;;;;;;10.35;4.32;;;;;;;26.53;10.82;100654.25;4968071;28;20486;-60
2022/05/16 08:11:47;;;;;;;6.65;2.42;;;;;;;26.68;10.26;100658.06;4958090;28;20035;-62
2022/05/16 08:14:14;;;;;;;9.77;4.60;;;;;;;26.71;10.47;100652.53;4969763;28;20077;-62
2022/05/16 08:16:41;;;;;;;14.35;5.60;;;;;;;26.69;10.34;100643.75;4959650;28;20031;-60
2022/05/16 08:19:08;;;;;;;6.70;2.15;;;;;;;26.92;10.29;100648.44;4963654;28;20024;-60
2022/05/16 08:21:36;;;;;;;7.50;1.90;;;;;;;27.18;10.17;100642.06;4967057;28;20043;-60
2022/05/16 08:24:07;;;;;;;5.25;2.00;;;;;;;27.02;10.00;100642.25;4960709;28;20027;-60
2022/05/16 08:26:35;;;;;;;10.80;2.28;;;;;;;26.92;10.13;100638.09;4954274;29;20042;-60
2022/05/16 08:29:02;;;;;;;11.95;2.28;;;;;;;26.73;10.18;100632.66;4966339;28;20022;-60
2022/05/16 08:31:31;;;;;;;4.00;1.50;;;;;;;26.62;10.45;100637.28;4963737;28;20035;-59
2022/05/16 08:33:58;;;;;;;5.72;1.50;;;;;;;26.56;10.17;100634.00;4973143;28;20033;-60
2022/05/16 08:41:55;;;;;;;;;;;;;;;26.43;9.94;100636.22;4962357;28;20047;-60
2022/05/16 08:44:29;;;;;;;7.10;2.65;;;;;;;26.48;9.95;100627.53;4972902;28;19914;-60
2022/05/16 08:47:14;;;;;;;18.57;6.40;;;;;;;26.35;9.89;100628.09;4965239;28;20034;-60
2022/05/16 08:50:16;;;;;;;13.77;8.40;;;;;;;26.08;10.68;100624.47;4962629;28;20318;-60
2022/05/16 08:53:24;;;;;;;10.27;6.07;;;;;;;25.94;11.38;100627.00;4936730;28;20070;-61
2022/05/16 08:55:55;;;;;;;8.70;5.00;;;;;;;25.76;10.24;100615.53;4960791;28;20039;-61
2022/05/16 08:58:51;;;;;;;9.23;5.00;;;;;;;25.67;9.85;100615.72;4944823;28;20026;-60
2022/05/16 09:01:27;;;;;;;8.45;4.45;;;;;;;25.60;10.28;100621.97;4928568;28;20134;-61
2022/05/16 09:04:12;;;;;;;13.70;4.72;;;;;;;25.41;10.00;100602.53;4958880;28;20418;-61
2022/05/16 09:07:15;;;;;;;17.45;4.38;;;;;;;25.22;10.79;100616.47;4949462;28;20408;-60
2022/05/16 09:09:56;;;;;;;34.42;4.00;;;;;;;24.90;11.61;100621.31;4961824;28;20045;-60
2022/05/16 09:12:41;;;;;;;47.72;4.50;;;;;;;24.58;12.58;100620.59;4954599;28;20067;-61
2022/05/16 09:15:07;;;;;;;;;;;;;;;24.48;11.37;100623.94;4966765;28;20058;-61
2022/05/16 09:17:39;;;;;;;26.65;3.30;;;;;;;24.34;11.32;100618.84;4969828;28;20288;-61
2022/05/16 09:20:17;;;;;;;7.75;1.88;;;;;;;24.31;11.00;100612.03;4959870;28;20039;-60
2022/05/16 09:23:10;;;;;;;6.97;1.40;;;;;;;24.20;11.36;100608.16;4968042;28;20039;-61
2022/05/16 09:25:58;;;;;;;10.88;1.70;;;;;;;23.91;11.90;100620.53;4969071;28;20035;-58
2022/05/16 09:28:37;;;;;;;11.02;1.67;;;;;;;23.73;13.48;100622.03;4945252;28;20382;-60
2022/05/16 09:31:22;;;;;;;8.65;1.77;;;;;;;23.55;12.88;100618.75;4965415;28;20315;-61
2022/05/16 09:33:53;;;;;;;;;;;;;;;23.47;12.41;100608.59;4969578;28;20031;-60
2022/05/16 09:36:25;;;;;;;6.70;1.50;;;;;;;23.73;11.58;100603.41;4957600;28;19954;-59
2022/05/16 09:38:52;;;;;;;6.05;1.40;;;;;;;24.66;10.90;100594.59;4966703;28;20043;-60
2022/05/16 09:41:25;;;;;;;4.90;1.20;;;;;;;24.94;10.01;100597.97;4960266;28;20028;-60
2022/05/16 09:43:52;;;;;;;3.47;1.17;;;;;;;25.35;9.00;100595.66;4970631;28;20378;-60
2022/05/16 09:46:36;;;;;;;3.58;1.08;;;;;;;25.83;8.23;100598.94;4958694;28;20489;-60
2022/05/16 09:49:24;;;;;;;4.13;1.10;;;;;;;26.67;7.52;100601.50;4966505;28;20498;-60
2022/05/16 09:51:57;;;;;;;5.47;1.15;;;;;;;26.71;7.55;100613.50;4970752;28;20039;-61
2022/05/16 09:54:26;;;;;;;3.85;1.20;;;;;;;26.52;7.80;100605.28;4943396;28;20410;-60
2022/05/16 09:57:19;;;;;;;4.72;1.73;;;;;;;26.72;7.60;100603.97;4967548;28;20382;-59
2022/05/16 09:59:55;;;;;;;6.35;1.83;;;;;;;26.18;7.86;100613.47;4970077;28;20039;-59
2022/05/16 10:02:34;;;;;;;4.18;1.80;;;;;;;25.75;8.00;100611.16;4943227;28;20043;-58
2022/05/16 10:05:21;;;;;;;6.25;2.10;;;;;;;25.39;8.43;100606.84;4966341;28;20517;-60
2022/05/16 10:07:52;;;;;;;6.75;2.28;;;;;;;25.16;8.72;100613.19;4970712;28;20031;-61
2022/05/16 10:10:26;;;;;;;7.43;2.10;;;;;;;24.92;9.08;100619.78;4957131;28;20548;-60
2022/05/16 10:12:56;;;;;;;7.15;2.50;;;;;;;24.84;8.98;100625.56;4962821;28;20039;-59
2022/05/16 10:15:23;;;;;;;9.27;2.40;;;;;;;24.78;9.50;100624.25;4963207;28;20039;-60
2022/05/16 10:17:54;;;;;;;6.38;2.08;;;;;;;25.56;8.52;100620.31;4970762;28;20035;-60
2022/05/16 10:20:26;;;;;;;13.80;2.00;;;;;;;25.57;8.02;100614.38;4942948;28;20114;-60
2022/05/16 10:22:58;;;;;;;8.20;1.88;;;;;;;25.16;8.45;100623.50;4967062;28;20086;-60
2022/05/16 10:25:30;;;;;;;9.63;1.83;;;;;;;24.79;10.04;100621.09;4967263;28;20035;-59
2022/05/16 10:27:58;;;;;;;11.02;2.20;;;;;;;24.74;8.95;100624.13;4958729;28;20051;-59
2022/05/16 10:30:28;;;;;;;8.65;1.60;;;;;;;25.27;8.28;100621.72;4973873;28;20082;-59
2022/05/16 10:35:52;;;;;;;11.00;1.90;;;;;;;26.45;7.50;100616.31;4969853;28;20038;-60
2022/05/16 10:38:58;;;;;;;5.85;1.60;;;;;;;26.87;7.00;100615.31;4958312;28;20118;-59
2022/05/16 10:42:17;;;;;;;7.35;1.25;;;;;;;26.59;7.21;100615.75;4962261;28;20141;-60
2022/05/16 10:44:53;;;;;;;6.18;1.20;;;;;;;26.74;6.93;100618.31;4895848;28;20031;-60
2022/05/16 10:47:45;;;;;;;5.22;1.23;;;;;;;27.01;6.76;100626.69;4946030;29;20035;-60
2022/05/16 10:50:46;;;;;;;9.82;1.55;;;;;;;27.03;6.60;100621.53;4970998;28;20085;-60
2022/05/16 10:53:20;;;;;;;4.88;0.90;;;;;;;27.30;6.68;100625.09;4871036;29;20044;-60
2022/05/16 10:56:01;;;;;;;0.43;0.43;;;;;;;28.60;5.24;100615.53;4965323;28;20106;-61
2022/05/16 10:58:53;;;;;;;1.33;0.80;;;;;;;28.50;5.70;100624.66;4944142;28;20493;-61
2022/05/16 11:01:28;;;;;;;2.33;0.82;;;;;;;28.79;5.94;100622.84;4962203;28;20043;-61
2022/05/16 11:04:14;;;;;;;1.90;0.70;;;;;;;28.95;5.58;100614.97;4970704;28;20449;-60
2022/05/16 11:07:02;;;;;;;3.70;0.80;;;;;;;28.98;5.60;100607.78;4930588;28;20148;-61
2022/05/16 11:09:38;;;;;;;4.45;0.80;;;;;;;28.11;6.34;100613.94;4961525;28;20043;-60
2022/05/16 11:12:23;;;;;;;3.42;1.10;;;;;;;27.27;6.68;100612.66;4960498;28;20047;-61
2022/05/16 11:15:20;;;;;;;17.23;6.75;;;;;;;26.20;10.51;100618.66;4960038;28;20235;-60
2022/05/16 11:18:10;;;;;;;28.02;7.88;;;;;;;25.36;12.67;100635.41;4954751;28;20040;-61
2022/05/16 11:20:51;;;;;;;18.48;7.68;;;;;;;24.73;14.06;100636.41;4942563;28;20071;-60
2022/05/16 11:23:48;;;;;;;29.13;8.38;;;;;;;24.27;15.36;100650.00;4953855;28;20039;-60
2022/05/16 11:26:33;;;;;;;33.17;11.60;;;;;;;23.91;16.19;100662.16;4956349;28;20043;-61
2022/05/16 11:29:18;;;;;;;36.05;11.80;;;;;;;23.67;17.51;100656.75;4965438;28;20143;-60
2022/05/16 11:32:06;;;;;;;31.10;10.82;;;;;;;23.22;17.58;100657.84;4956234;28;20134;-60
2022/05/16 11:34:52;;;;;;;36.05;12.35;;;;;;;22.65;19.70;100655.28;4949799;28;20073;-61
2022/05/16 11:37:24;;;;;;;39.50;13.10;;;;;;;22.41;20.74;100662.41;4962557;28;20047;-60
2022/05/16 11:40:02;;;;;;;32.70;11.35;;;;;;;22.12;20.65;100651.56;4969883;28;20039;-61
2022/05/16 11:43:04;;;;;;;30.05;10.60;;;;;;;21.94;21.32;100656.47;4953656;28;20033;-60
2022/05/16 11:45:33;;;;;;;36.72;10.93;;;;;;;21.70;21.75;100646.94;4924939;29;20489;-58
2022/05/16 11:48:30;;;;;;;33.40;11.68;;;;;;;21.71;21.32;100653.28;4970192;28;20034;-58
2022/05/16 11:51:25;;;;;;;32.70;11.35;;;;;;;21.60;21.84;100654.88;4962290;28;20504;-60
2022/05/16 11:53:58;;;;;;;42.95;12.45;;;;;;;21.54;21.91;100653.44;4958126;28;20135;-60
2022/05/16 12:02:19;;;;;;;32.17;12.02;;;;;;;21.32;22.71;100649.91;4972954;28;20057;-60
2022/05/16 12:04:52;;;;;;;33.60;10.75;;;;;;;21.28;22.46;100650.94;4964544;28;20027;-59
2022/05/16 12:07:32;;;;;;;35.97;11.40;;;;;;;21.10;22.91;100664.06;4965802;28;20047;-59
2022/05/16 12:10:22;;;;;;;28.88;10.85;;;;;;;20.94;23.32;100655.56;4973883;28;20051;-59
2022/05/16 12:13:24;;;;;;;32.13;9.95;;;;;;;20.84;23.88;100663.44;4964518;28;20456;-60
2022/05/16 12:16:16;;;;;;;36.50;11.68;;;;;;;20.94;23.46;100668.56;4961669;28;20119;-59
2022/05/16 12:18:49;;;;;;;37.17;12.18;;;;;;;20.90;23.52;100671.19;4951149;28;20031;-60
2022/05/16 12:21:18;;;;;;;35.55;12.18;;;;;;;20.81;23.64;100674.00;4966320;28;20038;-61
2022/05/16 12:23:48;;;;;;;53.85;18.88;;;;;;;20.78;23.98;100677.44;4972401;28;20030;-61
2022/05/16 12:26:27;;;;;;;54.00;26.00;;;;;;;20.73;24.34;100671.31;4960786;28;20050;-60
2022/05/16 12:29:09;;;;;;;69.07;32.22;;;;;;;20.83;24.31;100672.88;4969219;28;20035;-60